createdAt,value
2016-05-11T00:00:11.540Z,18.52
2016-05-11T00:01:11.528Z,18.46
2016-05-11T00:02:11.514Z,18.42
2016-05-11T00:03:11.517Z,18.49
2016-05-11T00:04:11.504Z,18.44
2016-05-11T00:05:11.491Z,18.46
2016-05-11T00:06:11.478Z,18.44
2016-05-11T00:07:11.466Z,18.43
2016-05-11T00:08:11.468Z,18.43
2016-05-11T00:09:11.456Z,18.43
2016-05-11T00:10:11.442Z,18.4
2016-05-11T00:11:11.444Z,18.39
2016-05-11T00:12:11.433Z,18.34
2016-05-11T00:13:11.263Z,18.34
2016-05-11T00:14:11.405Z,18.36
2016-05-11T00:15:11.441Z,18.29
2016-05-11T00:16:11.396Z,18.33
2016-05-11T00:17:11.383Z,18.28
2016-05-11T00:18:11.385Z,18.25
2016-05-11T00:19:11.373Z,18.27
2016-05-11T00:20:11.344Z,18.31
2016-05-11T00:21:11.346Z,18.25
2016-05-11T00:22:11.177Z,18.22
2016-05-11T00:23:11.337Z,18.28
2016-05-11T00:24:11.323Z,18.28
2016-05-11T00:25:11.155Z,18.24
2016-05-11T00:26:11.298Z,18.24
2016-05-11T00:27:11.129Z,18.21
2016-05-11T00:28:11.288Z,18.27
2016-05-11T00:29:11.275Z,18.22
2016-05-11T00:30:11.121Z,18.31
2016-05-11T00:31:11.264Z,18.19
2016-05-11T00:32:11.267Z,18.31
2016-05-11T00:33:11.082Z,18.17
2016-05-11T00:34:11.226Z,18.17
2016-05-11T00:35:11.228Z,18.21
2016-05-11T00:36:11.215Z,18.13
2016-05-11T00:37:11.203Z,18.27
2016-05-11T00:38:11.033Z,18.15
2016-05-11T00:39:11.380Z,18.18
2016-05-11T00:40:11.164Z,18.13
2016-05-11T00:41:11.150Z,18.13
2016-05-11T00:42:10.997Z,18.1
2016-05-11T00:43:10.983Z,18.1
2016-05-11T00:44:11.128Z,18.13
2016-05-11T00:45:11.036Z,18.18
2016-05-11T00:46:11.102Z,18.15
2016-05-11T00:47:10.949Z,18.13
2016-05-11T00:48:11.091Z,18.17
2016-05-11T00:49:11.079Z,18.17
2016-05-11T00:50:11.128Z,18.17
2016-05-11T00:51:10.912Z,18.22
2016-05-11T00:52:11.055Z,18.13
2016-05-11T00:53:11.042Z,18.17
2016-05-11T00:54:10.888Z,18.17
2016-05-11T00:55:11.016Z,18.1
2016-05-11T00:56:10.863Z,18.17
2016-05-11T00:57:10.850Z,18.15
2016-05-11T00:58:10.993Z,18.19
2016-05-11T00:59:10.981Z,18.04
2016-05-11T01:00:11.014Z,18.18
2016-05-11T01:01:10.970Z,18.06
2016-05-11T01:02:10.956Z,18.06
2016-05-11T01:03:10.803Z,18.07
2016-05-11T01:04:10.931Z,18.03
2016-05-11T01:05:10.950Z,18.04
2016-05-11T01:06:10.921Z,18.06
2016-05-11T01:07:10.908Z,18.04
2016-05-11T01:08:10.895Z,18.07
2016-05-11T01:09:10.897Z,18.07
2016-05-11T01:10:10.728Z,18.12
2016-05-11T01:11:10.872Z,17.95
2016-05-11T01:12:10.859Z,18
2016-05-11T01:13:10.847Z,17.97
2016-05-11T01:14:10.677Z,17.97
2016-05-11T01:15:11.242Z,17.99
2016-05-11T01:16:10.822Z,17.94
2016-05-11T01:17:10.670Z,18
2016-05-11T01:18:10.796Z,17.95
2016-05-11T01:19:10.799Z,18.06
2016-05-11T01:20:10.833Z,18.02
2016-05-11T01:21:10.774Z,18.02
2016-05-11T01:22:10.761Z,18.03
2016-05-11T01:23:10.763Z,17.95
2016-05-11T01:24:10.751Z,18
2016-05-11T01:25:10.737Z,18
2016-05-11T01:26:10.725Z,17.92
2016-05-11T01:27:10.727Z,17.89
2016-05-11T01:28:10.559Z,17.94
2016-05-11T01:29:10.702Z,17.94
2016-05-11T01:30:10.735Z,17.94
2016-05-11T01:31:10.675Z,17.89
2016-05-11T01:32:10.662Z,17.84
2016-05-11T01:33:10.682Z,17.88
2016-05-11T01:34:10.653Z,17.94
2016-05-11T01:35:10.640Z,17.95
2016-05-11T01:36:10.626Z,17.99
2016-05-11T01:37:10.614Z,17.91
2016-05-11T01:38:10.616Z,17.95
2016-05-11T01:39:10.604Z,17.94
2016-05-11T01:40:10.591Z,17.94
2016-05-11T01:41:10.577Z,17.87
2016-05-11T01:42:10.565Z,17.94
2016-05-11T01:43:10.411Z,17.88
2016-05-11T01:44:10.555Z,17.91
2016-05-11T01:45:10.698Z,17.87
2016-05-11T01:46:10.544Z,17.88
2016-05-11T01:47:10.515Z,17.89
2016-05-11T01:48:10.362Z,17.84
2016-05-11T01:49:10.553Z,17.81
2016-05-11T01:50:10.508Z,17.87
2016-05-11T01:51:10.496Z,17.88
2016-05-11T01:52:10.482Z,17.84
2016-05-11T01:53:10.469Z,17.85
2016-05-11T01:54:10.457Z,17.84
2016-05-11T01:55:10.459Z,17.82
2016-05-11T01:56:10.446Z,17.79
2016-05-11T01:57:10.433Z,17.81
2016-05-11T01:58:10.421Z,17.82
2016-05-11T01:59:10.407Z,17.78
2016-05-11T02:00:11.035Z,17.78
2016-05-11T02:01:10.397Z,17.78
2016-05-11T02:02:10.243Z,17.73
2016-05-11T02:03:10.370Z,17.76
2016-05-11T02:04:10.359Z,17.78
2016-05-11T02:05:10.346Z,17.78
2016-05-11T02:06:10.348Z,17.79
2016-05-11T02:07:10.178Z,17.73
2016-05-11T02:08:10.322Z,17.69
2016-05-11T02:09:10.169Z,17.64
2016-05-11T02:10:10.311Z,17.76
2016-05-11T02:11:10.299Z,17.73
2016-05-11T02:12:10.286Z,17.69
2016-05-11T02:13:10.273Z,17.7
2016-05-11T02:14:10.260Z,17.79
2016-05-11T02:15:10.216Z,17.73
2016-05-11T02:16:10.250Z,17.69
2016-05-11T02:17:10.081Z,17.64
2016-05-11T02:18:10.224Z,17.64
2016-05-11T02:19:10.227Z,17.69
2016-05-11T02:20:10.230Z,17.67
2016-05-11T02:21:10.044Z,17.69
2016-05-11T02:22:10.219Z,17.67
2016-05-11T02:23:10.175Z,17.63
2016-05-11T02:24:10.177Z,17.66
2016-05-11T02:25:10.024Z,17.66
2016-05-11T02:26:10.151Z,17.64
2016-05-11T02:27:10.138Z,17.62
2016-05-11T02:28:10.141Z,17.55
2016-05-11T02:29:10.129Z,17.62
2016-05-11T02:30:10.428Z,17.57
2016-05-11T02:31:10.103Z,17.53
2016-05-11T02:32:10.106Z,17.57
2016-05-11T02:33:10.077Z,17.55
2016-05-11T02:34:10.079Z,17.54
2016-05-11T02:35:09.910Z,17.54
2016-05-11T02:36:10.053Z,17.54
2016-05-11T02:37:10.040Z,17.55
2016-05-11T02:38:10.028Z,17.51
2016-05-11T02:39:09.890Z,17.4
2016-05-11T02:40:10.221Z,17.47
2016-05-11T02:41:10.005Z,17.48
2016-05-11T02:42:09.867Z,17.5
2016-05-11T02:43:09.978Z,17.5
2016-05-11T02:44:09.997Z,17.43
2016-05-11T02:45:10.155Z,17.55
2016-05-11T02:46:09.956Z,17.48
2016-05-11T02:47:09.942Z,17.47
2016-05-11T02:48:09.945Z,17.35
2016-05-11T02:49:09.948Z,17.41
2016-05-11T02:50:09.919Z,17.35
2016-05-11T02:51:09.750Z,17.36
2016-05-11T02:52:09.894Z,17.32
2016-05-11T02:53:09.880Z,17.3
2016-05-11T02:54:09.899Z,17.33
2016-05-11T02:55:09.699Z,17.23
2016-05-11T02:56:09.716Z,17.26
2016-05-11T02:57:09.688Z,17.22
2016-05-11T02:58:09.831Z,17.2
2016-05-11T02:59:09.663Z,17.15
2016-05-11T03:00:10.072Z,17.14
2016-05-11T03:01:09.668Z,17.13
2016-05-11T03:02:09.795Z,17.08
2016-05-11T03:03:09.798Z,17.1
2016-05-11T03:04:09.612Z,17.11
2016-05-11T03:05:09.756Z,17.07
2016-05-11T03:06:09.791Z,17.1
2016-05-11T03:07:09.793Z,17.08
2016-05-11T03:08:09.593Z,17.1
2016-05-11T03:09:09.564Z,17.03
2016-05-11T03:10:09.708Z,16.95
2016-05-11T03:11:09.694Z,16.96
2016-05-11T03:12:09.681Z,16.88
2016-05-11T03:13:09.669Z,16.88
2016-05-11T03:14:09.531Z,16.89
2016-05-11T03:15:10.033Z,16.81
2016-05-11T03:16:09.645Z,16.73
2016-05-11T03:17:09.633Z,16.7
2016-05-11T03:18:09.651Z,16.85
2016-05-11T03:19:09.466Z,16.8
2016-05-11T03:20:09.610Z,16.75
2016-05-11T03:21:09.596Z,16.73
2016-05-11T03:22:09.583Z,16.67
2016-05-11T03:23:09.571Z,16.59
2016-05-11T03:24:09.573Z,16.6
2016-05-11T03:25:09.561Z,16.62
2016-05-11T03:26:09.547Z,16.62
2016-05-11T03:27:09.550Z,16.56
2016-05-11T03:28:09.538Z,16.6
2016-05-11T03:29:09.509Z,16.56
2016-05-11T03:30:09.511Z,16.5
2016-05-11T03:31:09.489Z,16.42
2016-05-11T03:32:09.531Z,16.44
2016-05-11T03:33:09.558Z,16.35
2016-05-11T03:34:09.585Z,16.38
2016-05-11T03:35:09.611Z,16.27
2016-05-11T03:36:09.649Z,16.26
2016-05-11T03:37:09.495Z,16.23
2016-05-11T03:38:09.652Z,16.23
2016-05-11T03:39:09.497Z,16.3
2016-05-11T03:40:09.655Z,16.16
2016-05-11T03:41:09.654Z,16.23
2016-05-11T03:42:09.490Z,16.23
2016-05-11T03:43:09.638Z,16.16
2016-05-11T03:44:09.646Z,15.99
2016-05-11T03:45:10.060Z,16.11
2016-05-11T03:46:09.630Z,16.12
2016-05-11T03:47:09.619Z,16.15
2016-05-11T03:48:09.608Z,16.07
2016-05-11T03:49:09.612Z,16.04
2016-05-11T03:50:09.601Z,16.03
2016-05-11T03:51:09.450Z,16.04
2016-05-11T03:52:09.436Z,16.07
2016-05-11T03:53:09.565Z,16.04
2016-05-11T03:54:09.552Z,16.01
2016-05-11T03:55:09.384Z,15.99
2016-05-11T03:56:09.527Z,15.97
2016-05-11T03:57:09.546Z,15.97
2016-05-11T03:58:09.502Z,15.99
2016-05-11T03:59:09.521Z,16.06
2016-05-11T04:00:09.492Z,16.01
2016-05-11T04:01:09.324Z,15.97
2016-05-11T04:02:09.467Z,16.04
2016-05-11T04:03:09.454Z,15.94
2016-05-11T04:04:09.286Z,15.97
2016-05-11T04:05:09.272Z,15.96
2016-05-11T04:06:09.274Z,15.93
2016-05-11T04:07:09.418Z,15.94
2016-05-11T04:08:09.250Z,15.93
2016-05-11T04:09:09.220Z,15.92
2016-05-11T04:10:09.380Z,15.93
2016-05-11T04:11:09.366Z,15.97
2016-05-11T04:12:09.446Z,15.94
2016-05-11T04:13:09.340Z,15.93
2016-05-11T04:14:09.344Z,15.93
2016-05-11T04:15:09.471Z,15.96
2016-05-11T04:16:09.146Z,15.97
2016-05-11T04:17:09.288Z,15.97
2016-05-11T04:18:09.307Z,15.99
2016-05-11T04:19:09.279Z,15.97
2016-05-11T04:20:09.249Z,15.94
2016-05-11T04:21:09.096Z,16
2016-05-11T04:22:09.255Z,16.03
2016-05-11T04:23:09.242Z,16.06
2016-05-11T04:24:09.214Z,16.06
2016-05-11T04:25:09.045Z,16.03
2016-05-11T04:26:09.032Z,16.07
2016-05-11T04:27:09.191Z,16.06
2016-05-11T04:28:09.193Z,16.07
2016-05-11T04:29:09.165Z,16.11
2016-05-11T04:30:09.011Z,16.09
2016-05-11T04:31:08.983Z,16.07
2016-05-11T04:32:09.125Z,16.11
2016-05-11T04:33:09.129Z,16.15
2016-05-11T04:34:09.116Z,16.18
2016-05-11T04:35:08.946Z,16.14
2016-05-11T04:36:09.089Z,16.22
2016-05-11T04:37:08.920Z,16.14
2016-05-11T04:38:09.063Z,16.16
2016-05-11T04:39:08.911Z,16.23
2016-05-11T04:40:09.085Z,16.26
2016-05-11T04:41:08.963Z,16.27
2016-05-11T04:42:09.059Z,16.27
2016-05-11T04:43:09.015Z,16.3
2016-05-11T04:44:08.846Z,16.23
2016-05-11T04:45:08.864Z,16.27
2016-05-11T04:46:08.976Z,16.22
2016-05-11T04:47:08.963Z,16.31
2016-05-11T04:48:08.966Z,16.34
2016-05-11T04:49:08.968Z,16.34
2016-05-11T04:50:09.143Z,16.26
2016-05-11T04:51:08.927Z,16.35
2016-05-11T04:52:08.914Z,16.37
2016-05-11T04:53:08.745Z,16.4
2016-05-11T04:54:08.904Z,16.35
2016-05-11T04:55:08.875Z,16.35
2016-05-11T04:56:08.879Z,16.3
2016-05-11T04:57:08.708Z,16.48
2016-05-11T04:58:08.852Z,16.48
2016-05-11T04:59:08.870Z,16.48
2016-05-11T05:00:08.842Z,16.48
2016-05-11T05:01:08.672Z,16.49
2016-05-11T05:02:08.801Z,16.45
2016-05-11T05:03:08.787Z,16.44
2016-05-11T05:04:08.681Z,16.53
2016-05-11T05:05:08.778Z,16.56
2016-05-11T05:06:08.811Z,16.6
2016-05-11T05:07:08.751Z,16.65
2016-05-11T05:08:08.738Z,16.59
2016-05-11T05:09:08.741Z,16.63
2016-05-11T05:10:08.588Z,16.62
2016-05-11T05:11:08.716Z,16.7
2016-05-11T05:12:08.546Z,16.73
2016-05-11T05:13:08.689Z,16.71
2016-05-11T05:14:08.692Z,16.8
2016-05-11T05:15:08.726Z,16.83
2016-05-11T05:16:08.697Z,16.86
2016-05-11T05:17:08.653Z,16.86
2016-05-11T05:18:08.515Z,16.74
2016-05-11T05:19:09.112Z,16.77
2016-05-11T05:20:08.615Z,16.88
2016-05-11T05:21:08.601Z,16.81
2016-05-11T05:22:08.682Z,16.85
2016-05-11T05:23:08.607Z,16.92
2016-05-11T05:24:08.593Z,16.86
2016-05-11T05:25:08.582Z,16.85
2016-05-11T05:26:08.551Z,16.83
2016-05-11T05:27:08.384Z,16.93
2016-05-11T05:28:08.526Z,16.95
2016-05-11T05:29:08.514Z,16.99
2016-05-11T05:30:08.516Z,16.92
2016-05-11T05:31:08.504Z,16.93
2016-05-11T05:32:08.490Z,17.04
2016-05-11T05:33:08.478Z,17.03
2016-05-11T05:34:08.324Z,17
2016-05-11T05:35:08.467Z,17.03
2016-05-11T05:36:08.454Z,17.03
2016-05-11T05:37:08.285Z,17.06
2016-05-11T05:38:08.428Z,16.93
2016-05-11T05:39:08.416Z,16.99
2016-05-11T05:40:08.247Z,16.98
2016-05-11T05:41:08.389Z,17.04
2016-05-11T05:42:08.392Z,16.99
2016-05-11T05:43:08.380Z,17.13
2016-05-11T05:44:08.225Z,17.08
2016-05-11T05:45:08.353Z,17.13
2016-05-11T05:46:08.356Z,17.18
2016-05-11T05:47:08.327Z,17.15
2016-05-11T05:48:08.330Z,17.18
2016-05-11T05:49:08.318Z,17.22
2016-05-11T05:50:08.305Z,17.22
2016-05-11T05:51:08.135Z,17.25
2016-05-11T05:52:08.122Z,17.29
2016-05-11T05:53:08.281Z,17.29
2016-05-11T05:54:08.268Z,17.3
2016-05-11T05:55:08.271Z,17.32
2016-05-11T05:56:08.242Z,17.29
2016-05-11T05:57:08.229Z,17.35
2016-05-11T05:58:08.232Z,17.41
2016-05-11T05:59:08.219Z,17.35
2016-05-11T06:00:08.206Z,17.36
2016-05-11T06:01:08.443Z,17.4
2016-05-11T06:02:08.180Z,17.5
2016-05-11T06:03:08.199Z,17.51
2016-05-11T06:04:08.170Z,17.53
2016-05-11T06:05:08.157Z,17.44
2016-05-11T06:06:08.191Z,17.43
2016-05-11T06:07:07.850Z,17.48
2016-05-11T06:08:08.119Z,17.51
2016-05-11T06:09:08.121Z,17.59
2016-05-11T06:10:08.109Z,17.55
2016-05-11T06:11:08.095Z,17.54
2016-05-11T06:12:08.082Z,17.71
2016-05-11T06:13:08.070Z,17.69
2016-05-11T06:14:08.088Z,17.73
2016-05-11T06:15:08.106Z,17.71
2016-05-11T06:16:08.452Z,17.78
2016-05-11T06:17:08.049Z,17.82
2016-05-11T06:18:07.724Z,17.82
2016-05-11T06:19:08.101Z,17.85
2016-05-11T06:20:07.870Z,17.81
2016-05-11T06:21:12.340Z,17.97
2016-05-11T06:22:23.312Z,17.85
2016-05-11T06:23:09.363Z,18
2016-05-11T06:24:12.380Z,18
2016-05-11T06:25:09.617Z,17.92
2016-05-11T06:26:10.870Z,18.1
2016-05-11T06:27:07.795Z,18.06
2016-05-11T06:28:08.188Z,18.15
2016-05-11T06:29:09.738Z,18.27
2016-05-11T06:30:07.928Z,18.17
2016-05-11T06:31:08.368Z,18.1
2016-05-11T06:32:07.886Z,18.17
2016-05-11T06:33:07.874Z,18.22
2016-05-11T06:34:07.876Z,18.24
2016-05-11T06:35:07.848Z,18.31
2016-05-11T06:36:07.851Z,18.37
2016-05-11T06:37:07.837Z,18.42
2016-05-11T06:38:07.840Z,18.43
2016-05-11T06:39:07.827Z,18.49
2016-05-11T06:40:08.017Z,18.54
2016-05-11T06:41:07.801Z,18.58
2016-05-11T06:42:07.631Z,18.64
2016-05-11T06:43:07.791Z,18.64
2016-05-11T06:44:07.621Z,18.62
2016-05-11T06:45:07.764Z,18.59
2016-05-11T06:46:08.018Z,18.79
2016-05-11T06:47:07.739Z,18.73
2016-05-11T06:48:07.742Z,18.74
2016-05-11T06:49:07.572Z,18.77
2016-05-11T06:50:07.716Z,18.77
2016-05-11T06:51:07.703Z,18.87
2016-05-11T06:52:07.705Z,18.87
2016-05-11T06:53:07.724Z,18.86
2016-05-11T06:54:07.555Z,18.97
2016-05-11T06:55:07.666Z,19.01
2016-05-11T06:56:07.654Z,19.01
2016-05-11T06:57:07.501Z,19.05
2016-05-11T06:58:07.643Z,19.11
2016-05-11T06:59:07.646Z,19.14
2016-05-11T07:00:07.618Z,19.08
2016-05-11T07:01:07.668Z,19.21
2016-05-11T07:02:13.499Z,19.29
2016-05-11T07:03:07.437Z,19.38
2016-05-11T07:04:07.582Z,19.4
2016-05-11T07:05:07.429Z,19.4
2016-05-11T07:06:07.415Z,19.43
2016-05-11T07:07:07.559Z,19.4
2016-05-11T07:08:07.545Z,19.47
2016-05-11T07:09:07.548Z,19.54
2016-05-11T07:10:07.379Z,19.55
2016-05-11T07:11:07.522Z,19.57
2016-05-11T07:12:07.509Z,19.48
2016-05-11T07:13:07.511Z,19.63
2016-05-11T07:14:07.500Z,19.6
2016-05-11T07:15:07.486Z,19.66
2016-05-11T07:16:07.817Z,19.61
2016-05-11T07:17:07.475Z,19.68
2016-05-11T07:18:07.463Z,19.65
2016-05-11T07:19:07.466Z,19.7
2016-05-11T07:20:07.296Z,19.72
2016-05-11T07:21:07.440Z,19.78
2016-05-11T07:22:07.271Z,19.8
2016-05-11T07:23:07.257Z,19.87
2016-05-11T07:24:07.432Z,19.91
2016-05-11T07:25:07.404Z,19.94
2016-05-11T07:26:07.249Z,19.97
2016-05-11T07:27:07.222Z,20
2016-05-11T07:28:07.381Z,20.38
2016-05-11T07:29:07.368Z,21.5
2016-05-11T07:30:07.385Z,22.28
2016-05-11T07:31:07.576Z,22.99
2016-05-11T07:32:07.360Z,23.47
2016-05-11T07:33:07.331Z,24.16
2016-05-11T07:34:07.178Z,24.91
2016-05-11T07:35:07.353Z,25.43
2016-05-11T07:36:07.340Z,25.75
2016-05-11T07:37:07.311Z,26.08
2016-05-11T07:38:07.329Z,26.32
2016-05-11T07:39:07.160Z,26.21
2016-05-11T07:40:07.320Z,26.52
2016-05-11T07:41:07.150Z,26.57
2016-05-11T07:42:07.309Z,26.84
2016-05-11T07:43:07.140Z,26.64
2016-05-11T07:44:07.142Z,26.55
2016-05-11T07:45:07.286Z,26.91
2016-05-11T07:46:08.304Z,26.86
2016-05-11T07:47:07.292Z,26.36
2016-05-11T07:48:07.278Z,26.24
2016-05-11T07:49:07.281Z,26.57
2016-05-11T07:50:07.283Z,26.58
2016-05-11T07:51:07.583Z,26.57
2016-05-11T07:52:07.116Z,26.73
2016-05-11T07:53:07.276Z,26.86
2016-05-11T07:54:07.264Z,26.54
2016-05-11T07:55:07.110Z,26.77
2016-05-11T07:56:07.285Z,26.59
2016-05-11T07:57:07.271Z,26.58
2016-05-11T07:58:07.117Z,26.08
2016-05-11T07:59:07.261Z,25.56
2016-05-11T08:00:07.264Z,25.72
2016-05-11T08:01:07.876Z,26.15
2016-05-11T08:02:07.113Z,26.37
2016-05-11T08:03:07.271Z,26.04
2016-05-11T08:04:07.274Z,25.68
2016-05-11T08:05:07.277Z,25.87
2016-05-11T08:06:07.265Z,26.22
2016-05-11T08:07:06.954Z,26.65
2016-05-11T08:08:07.113Z,27.1
2016-05-11T08:09:07.100Z,27.48
2016-05-11T08:10:07.259Z,27.94
2016-05-11T08:11:07.278Z,28.38
2016-05-11T08:12:07.265Z,28.93
2016-05-11T08:13:07.126Z,29.4
2016-05-11T08:14:07.270Z,29.59
2016-05-11T08:15:07.117Z,29.65
2016-05-11T08:16:07.666Z,30
2016-05-11T08:17:06.981Z,30.31
2016-05-11T08:18:07.281Z,30.76
2016-05-11T08:19:07.283Z,30.99
2016-05-11T08:20:07.286Z,31.18
2016-05-11T08:21:07.289Z,31.31
2016-05-11T08:22:07.135Z,31.46
2016-05-11T08:23:07.294Z,31.33
2016-05-11T08:24:07.297Z,31.23
2016-05-11T08:25:07.300Z,31.48
2016-05-11T08:26:07.302Z,31.75
2016-05-11T08:27:07.305Z,31.7
2016-05-11T08:28:07.292Z,31.93
2016-05-11T08:29:07.294Z,32.07
2016-05-11T08:30:07.344Z,32.37
2016-05-11T08:31:07.347Z,32.57
2016-05-11T08:32:07.162Z,32.47
2016-05-11T08:33:07.321Z,32.24
2016-05-11T08:34:07.168Z,31.8
2016-05-11T08:35:07.154Z,31.72
2016-05-11T08:36:07.188Z,31.88
2016-05-11T08:37:07.332Z,31.96
2016-05-11T08:38:07.318Z,32.02
2016-05-11T08:39:07.337Z,32.24
2016-05-11T08:40:07.543Z,32.52
2016-05-11T08:41:07.343Z,32.7
2016-05-11T08:42:07.345Z,32.81
2016-05-11T08:43:07.348Z,32.93
2016-05-11T08:44:07.351Z,32.81
2016-05-11T08:45:07.369Z,32.71
2016-05-11T08:46:07.059Z,32.84
2016-05-11T08:47:07.359Z,32.92
2016-05-11T08:48:07.361Z,32.99
2016-05-11T08:49:07.209Z,33.14
2016-05-11T08:50:07.383Z,33.06
2016-05-11T08:51:07.369Z,32.4
2016-05-11T08:52:07.216Z,32.22
2016-05-11T08:53:07.391Z,32.25
2016-05-11T08:54:07.393Z,31.64
2016-05-11T08:55:07.380Z,30.65
2016-05-11T08:56:07.414Z,30.07
2016-05-11T08:57:07.386Z,29.81
2016-05-11T08:58:07.404Z,29.52
2016-05-11T08:59:07.422Z,29.37
2016-05-11T09:00:07.394Z,29.03
2016-05-11T09:01:07.630Z,29.31
2016-05-11T09:02:07.243Z,29.74
2016-05-11T09:03:07.246Z,29.93
2016-05-11T09:04:07.546Z,30.03
2016-05-11T09:05:07.407Z,29.89
2016-05-11T09:06:07.253Z,29.7
2016-05-11T09:07:07.413Z,29.57
2016-05-11T09:08:07.415Z,29.38
2016-05-11T09:09:07.417Z,29.13
2016-05-11T09:10:07.265Z,28.87
2016-05-11T09:11:07.407Z,28.58
2016-05-11T09:12:07.254Z,28.21
2016-05-11T09:13:07.413Z,27.86
2016-05-11T09:14:07.275Z,27.71
2016-05-11T09:15:07.418Z,27.47
2016-05-11T09:16:28.514Z,27.23
2016-05-11T09:17:07.564Z,27.21
2016-05-11T09:18:07.270Z,27.04
2016-05-11T09:19:07.413Z,26.98
2016-05-11T09:20:07.432Z,27.1
2016-05-11T09:21:07.263Z,27.31
2016-05-11T09:22:07.422Z,27.16
2016-05-11T09:23:07.425Z,27.23
2016-05-11T09:24:07.271Z,27.48
2016-05-11T09:25:07.258Z,27.61
2016-05-11T09:26:07.417Z,27.7
2016-05-11T09:27:07.419Z,27.62
2016-05-11T09:28:07.422Z,27.35
2016-05-11T09:29:07.425Z,27.28
2016-05-11T09:30:07.412Z,27.2
2016-05-11T09:31:07.415Z,27.26
2016-05-11T09:32:07.418Z,27.1
2016-05-11T09:33:07.420Z,27.16
2016-05-11T09:34:07.423Z,27.29
2016-05-11T09:35:07.254Z,27.26
2016-05-11T09:36:07.412Z,27.35
2016-05-11T09:37:07.415Z,27.57
2016-05-11T09:38:07.417Z,27.42
2016-05-11T09:39:07.249Z,27.41
2016-05-11T09:40:07.252Z,27.39
2016-05-11T09:41:07.410Z,27.29
2016-05-11T09:42:07.241Z,27.39
2016-05-11T09:43:07.400Z,27.28
2016-05-11T09:44:07.387Z,27.24
2016-05-11T09:45:07.389Z,27.06
2016-05-11T09:46:07.392Z,27.17
2016-05-11T09:47:07.379Z,27.04
2016-05-11T09:48:07.242Z,26.91
2016-05-11T09:49:07.384Z,26.91
2016-05-11T09:50:07.387Z,26.83
2016-05-11T09:51:07.234Z,26.8
2016-05-11T09:52:07.378Z,26.62
2016-05-11T09:53:07.224Z,26.47
2016-05-11T09:54:07.383Z,26.54
2016-05-11T09:55:07.369Z,26.72
2016-05-11T09:56:07.372Z,26.83
2016-05-11T09:57:07.375Z,26.95
2016-05-11T09:58:07.363Z,26.81
2016-05-11T09:59:07.365Z,26.81
2016-05-11T10:00:07.352Z,26.79
2016-05-11T10:01:07.604Z,26.73
2016-05-11T10:02:07.357Z,26.42
2016-05-11T10:03:07.360Z,26.15
2016-05-11T10:04:07.346Z,26.05
2016-05-11T10:05:07.350Z,25.87
2016-05-11T10:06:07.196Z,25.46
2016-05-11T10:07:07.340Z,25.52
2016-05-11T10:08:07.343Z,25.64
2016-05-11T10:09:07.345Z,25.82
2016-05-11T10:10:07.332Z,25.93
2016-05-11T10:11:07.335Z,26.04
2016-05-11T10:12:07.321Z,26.29
2016-05-11T10:13:07.340Z,26.32
2016-05-11T10:14:07.327Z,26.46
2016-05-11T10:15:07.345Z,26.58
2016-05-11T10:16:07.661Z,26.79
2016-05-11T10:17:07.320Z,27.09
2016-05-11T10:18:07.306Z,27.38
2016-05-11T10:19:07.310Z,27.62
2016-05-11T10:20:07.312Z,27.51
2016-05-11T10:21:07.315Z,27.42
2016-05-11T10:22:07.317Z,27.69
2016-05-11T10:23:07.147Z,27.94
2016-05-11T10:24:07.308Z,28.33
2016-05-11T10:25:07.310Z,28.97
2016-05-11T10:26:07.156Z,29.22
2016-05-11T10:27:07.300Z,29.13
2016-05-11T10:28:07.302Z,29.44
2016-05-11T10:29:07.305Z,29.56
2016-05-11T10:30:07.308Z,29.96
2016-05-11T10:31:07.482Z,30.12
2016-05-11T10:32:49.330Z,30.56
2016-05-11T10:33:07.316Z,30.64
2016-05-11T10:34:07.319Z,31.05
2016-05-11T10:35:07.352Z,30.98
2016-05-11T10:36:07.341Z,30.67
2016-05-11T10:37:07.326Z,30.09
2016-05-11T10:38:07.330Z,29.89
2016-05-11T10:39:07.176Z,30.15
2016-05-11T10:40:07.522Z,29.74
2016-05-11T10:41:07.338Z,29.43
2016-05-11T10:42:07.200Z,29.92
2016-05-11T10:43:07.343Z,29.82
2016-05-11T10:44:07.345Z,30.08
2016-05-11T10:45:07.348Z,29.7
2016-05-11T10:46:07.413Z,29.23
2016-05-11T10:47:07.353Z,29.06
2016-05-11T10:48:07.356Z,28.7
2016-05-11T10:49:08.625Z,28.53
2016-05-11T10:50:07.362Z,27.96
2016-05-11T10:51:07.364Z,28.51
2016-05-11T10:52:07.367Z,29.04
2016-05-11T10:53:07.370Z,29.52
2016-05-11T10:54:07.232Z,29.89
2016-05-11T10:55:07.375Z,30.26
2016-05-11T10:56:07.378Z,30.68
2016-05-11T10:57:07.067Z,30.96
2016-05-11T10:58:07.383Z,31.36
2016-05-11T10:59:07.448Z,31.45
2016-05-11T11:00:07.389Z,31.31
2016-05-11T11:01:07.391Z,31.7
2016-05-11T11:02:07.394Z,32
2016-05-11T11:03:07.413Z,32.13
2016-05-11T11:04:07.400Z,32.18
2016-05-11T11:05:07.418Z,32.48
2016-05-11T11:06:07.421Z,32.76
2016-05-11T11:07:07.267Z,32.84
2016-05-11T11:08:07.426Z,32.91
2016-05-11T11:09:08.335Z,32.84
2016-05-11T11:10:07.462Z,32.59
2016-05-11T11:11:07.450Z,32.79
2016-05-11T11:12:07.437Z,32.71
2016-05-11T11:13:07.454Z,32.69
2016-05-11T11:14:07.849Z,32.95
2016-05-11T11:15:07.460Z,32.95
2016-05-11T11:16:07.322Z,33.04
2016-05-11T11:17:07.481Z,33.19
2016-05-11T11:18:07.485Z,32.73
2016-05-11T11:19:07.956Z,32.54
2016-05-11T11:20:07.333Z,32.66
2016-05-11T11:21:07.493Z,32.48
2016-05-11T11:22:07.339Z,32.69
2016-05-11T11:23:07.357Z,32.43
2016-05-11T11:24:07.515Z,32.54
2016-05-11T11:25:07.518Z,32.79
2016-05-11T11:26:07.521Z,32.24
2016-05-11T11:27:07.367Z,32.54
2016-05-11T11:28:07.526Z,32.66
2016-05-11T11:29:07.545Z,32.69
2016-05-11T11:30:07.531Z,32.71
2016-05-11T11:31:07.347Z,32.96
2016-05-11T11:32:07.397Z,33.06
2016-05-11T11:33:07.556Z,33.3
2016-05-11T11:34:07.964Z,33.33
2016-05-11T11:35:07.577Z,33.55
2016-05-11T11:36:07.563Z,33.6
2016-05-11T11:37:07.582Z,33.64
2016-05-11T11:38:07.585Z,33.48
2016-05-11T11:39:07.665Z,33.64
2016-05-11T11:40:07.590Z,33.86
2016-05-11T11:41:07.593Z,34.07
2016-05-11T11:42:07.596Z,34.23
2016-05-11T11:43:07.473Z,33.22
2016-05-11T11:44:07.632Z,33.06
2016-05-11T11:45:07.619Z,33.19
2016-05-11T11:46:07.888Z,33.3
2016-05-11T11:47:07.484Z,33.36
2016-05-11T11:48:07.487Z,33.41
2016-05-11T11:49:07.662Z,33.33
2016-05-11T11:50:07.664Z,33.45
2016-05-11T11:51:07.650Z,33.22
2016-05-11T11:52:07.654Z,33.33
2016-05-11T11:53:07.656Z,33.46
2016-05-11T11:54:07.518Z,33.74
2016-05-11T11:55:07.677Z,33.45
2016-05-11T11:56:07.681Z,33.1
2016-05-11T11:57:07.683Z,33.34
2016-05-11T11:58:07.700Z,33.42
2016-05-11T11:59:08.829Z,33.52
2016-05-11T12:00:08.223Z,33.58
2016-05-11T12:01:07.725Z,33.64
2016-05-11T12:02:07.852Z,33.63
2016-05-11T12:03:07.574Z,33.74
2016-05-11T12:04:10.155Z,33.87
2016-05-11T12:05:07.579Z,34.17
2016-05-11T12:06:07.582Z,33.7
2016-05-11T12:07:07.741Z,33.83
2016-05-11T12:08:07.759Z,34.17
2016-05-11T12:09:07.777Z,34.27
2016-05-11T12:10:07.780Z,34.22
2016-05-11T12:11:07.611Z,34.2
2016-05-11T12:12:07.770Z,34.44
2016-05-11T12:13:07.632Z,34.54
2016-05-11T12:14:07.635Z,34.34
2016-05-11T12:15:07.793Z,34.17
2016-05-11T12:16:07.671Z,34.07
2016-05-11T12:17:07.815Z,34.17
2016-05-11T12:18:07.817Z,34.34
2016-05-11T12:19:07.523Z,34.54
2016-05-11T12:20:07.666Z,34.45
2016-05-11T12:21:07.826Z,34.07
2016-05-11T12:22:07.687Z,34.17
2016-05-11T12:23:07.846Z,34.42
2016-05-11T12:24:07.849Z,34.53
2016-05-11T12:25:07.851Z,34.32
2016-05-11T12:26:07.870Z,34.48
2016-05-11T12:27:07.717Z,34.45
2016-05-11T12:28:07.876Z,34.48
2016-05-11T12:29:07.878Z,34.45
2016-05-11T12:30:07.897Z,34.61
2016-05-11T12:31:07.727Z,34.76
2016-05-11T12:32:07.917Z,34.74
2016-05-11T12:33:07.936Z,34.29
2016-05-11T12:34:07.969Z,34.57
2016-05-11T12:35:07.925Z,34.51
2016-05-11T12:36:07.928Z,34.44
2016-05-11T12:37:07.956Z,34.57
2016-05-11T12:38:08.006Z,34.51
2016-05-11T12:39:08.087Z,34.72
2016-05-11T12:40:08.309Z,34.88
2016-05-11T12:41:08.172Z,34.92
2016-05-11T12:42:08.205Z,35.1
2016-05-11T12:43:08.240Z,35.13
2016-05-11T12:44:08.103Z,35.2
2016-05-11T12:45:08.279Z,34.79
2016-05-11T12:46:08.534Z,34.89
2016-05-11T12:47:08.312Z,34.91
2016-05-11T12:48:08.337Z,34.77
2016-05-11T12:49:08.330Z,34.81
2016-05-11T12:50:08.355Z,34.86
2016-05-11T12:51:08.380Z,34.63
2016-05-11T12:52:08.401Z,34.72
2016-05-11T12:53:08.375Z,34.6
2016-05-11T12:54:08.395Z,34.63
2016-05-11T12:55:08.447Z,34.46